Littleton, NH (03561)

3:07 PM EDT on August 30, 2016 (GMT -0400)
Littleton NH | | Change Station

Elev 1076 ft 44.29 °N, 71.79 °W | Updated 9 minutes ago

Mostly Cloudy
Mostly Cloudy
74.0 °F
Feels Like 77 °F
N
3.0
Wind Variable Wind from WNW
Gusts 7.0 mph

Today
High -- | Low -- °F
--% Chance of Precip.
Yesterday
High -- | Low -- °F
Precip. -- in
Pressure 30.09 in
Visibility 10.0 miles
Clouds Mostly Cloudy 5000 ft
Mostly Cloudy 6000 ft
Heat Index 77 °F
Dew Point 56 °F
Humidity 54%
Rainfall 0.00 in
Snow Depth Not available.
6:08 AM 7:26 PM
Waning Crescent, 3% visible
METAR KHIE 301852Z AUTO VRB05KT 10SM BKN050 BKN060 23/12 A3008 RMK AO2 SLP188 T02330117
Pressure 30.09 in
Visibility 10.0 miles
Clouds Mostly Cloudy 5000 ft
Mostly Cloudy 6000 ft
Heat Index 77 °F
Dew Point 56 °F
Humidity 54%
Rainfall 0.00 in
Snow Depth Not available.
6:08 AM 7:26 PM
Waning Crescent, 3% visible
METAR KHIE 301852Z AUTO VRB05KT 10SM BKN050 BKN060 23/12 A3008 RMK AO2 SLP188 T02330117

10-Day Weather Forecast

Almanac

Astronomy

Aug. 30, 2016 Rise Set
Actual Time
Civil Twilight
Nautical Twilight
Astronomical Twilight
Moon
Length of Visible Light
Length of Day
Tomorrow will be .
, % of the Moon is Illuminated

Today's Extremes

State Highs State Lows

Community

WunderPhotos

Upload Photos

1,935,879 photos uploaded!

WunderBlog® & News

Nearby

Air Quality

  Air Quality AQ Index Pollutant
Not available.

Snow Depth

Station Depth Elevation

Earthquake Activity

City Distance Mag. Time & Date
Minimum magnitude displayed is 2.5.

Coastal Water Temperatures

Place Temperature

Stations

Nearby Weather Stations

Station Location Temp. Windchill Dew Point Humidity Wind Precip. Elev Updated Type
                   

Watches & Warnings

There are currently no watches in effect.